Alamance, North Carolina
Current Conditions -  °F | °C
As of 11:54 PM on Thursday 27 Nov 2014 (Local Time) from KBUY Reporting Station
Clear Clear  
Wind Chill: 27°   Ceiling: Unl
Heat Index: 34°   Visibility: 10mi
Dew Point: 21°   Wind: 9mph
Humidity: 59%   Direction: 300°WNW
Pressure: 30.27"   Gusts: NA
Location:  36.04°N, 79.49°W
Report Text: KBUY 280454Z AUTO 30008KT 10SM CLR 01/M06 A3027 RMK AO2 SLP252 T00111061 400890011
Loading
Personal Weather Stations






























Interactive Weather Map New forecast layout! Learn more

10-Day Weather Forecast

Advertisements
Track Severe Weather on mobile